Bridgewater, Canada
Current Conditions -  °F | °C
As of 8:00 AM on Monday 22 Dec 2014 (Local Time) from CYZX Reporting Station
Overcast Overcast  
Wind Chill: 22°   Ceiling: 2700
Heat Index: 30°   Visibility: 15mi
Dew Point: 27°   Wind: 9mph
Humidity: 86%   Direction: 80°E
Pressure: 30.43"   Gusts: NA
Location:  44.37°N, 64.52°W
Report Text: CYZX 221200Z 08008KT 15SM OVC027 M01/M03 A3043 RMK SC8 WNDY HILL 10010KT SLP307
Loading
Personal Weather Stations






























Interactive Weather Map New forecast layout! Learn more

10-Day Weather Forecast

Advertisements
Track Severe Weather on mobile